Open Full Screen Window  High Contrast Mode
Wind Gusting 00 knots
04
January 25, 2015 11:20 PM EST
Present Weather: Light Snow
Weather Information
Wind Direction
  040 °
Wind Speed
  04 kt (5 mph)
Wind Gust
  00 kt (0 mph)
Altimeter
29.68 in
Visibility
4 SM
Temperature
03° C
37° F
Dewpoint
03° C
37° F
Humidity
100%
1hr Rain Fall
00.00 in.
24hr Rain Fall
00.31 in.
Sky Condition
Overcast @ 300 ft
LIFR

METAR KI69 260420Z AUTO 04004KT 4SM -SN OVC003 03/03 A2968 RMK AO1

*Background is not an actual portrayal of the airport.